Chamberino, New Mexico
Current Conditions -  °F | °C
As of 8:35 PM on Monday 20 Oct 2014 (Local Time) from KLRU Reporting Station
Broken Clouds Broken Clouds  
Wind Chill: 61°   Ceiling: 4100
Heat Index: 61°   Visibility: 10mi
Dew Point: 54°   Wind: 5mph
Humidity: 76%   Direction: 180°S
Pressure: 30.1"   Gusts: NA
Location:  32.05°N, 106.68°W
Report Text: KLRU 210235Z AUTO 18004KT 10SM BKN041 BKN050 BKN060 16/12 A3010 RMK AO2 T01630121
Loading
Personal Weather Stations






























Interactive Weather Map
Tropical Storm Tracking
New forecast layout! Learn more

10-Day Weather Forecast

Advertisements
Track Severe Weather on mobile